Alto, Louisiana
Current Conditions -  °F | °C
As of 12:53 PM on Tuesday 21 Oct 2014 (Local Time) from KMLU Reporting Station
Clear Clear  
Wind Chill: 24°   Ceiling: Unl
Heat Index: 24°   Visibility: 10mi
Dew Point: 15°   Wind: 7mph
Humidity: 56%   Direction: 20°NNE
Pressure: 30.09"   Gusts: NA
Location:  32.4475°N, 91.7992°W
Report Text: KMLU 211753Z 02006KT 10SM CLR 24/15 A3009 RMK AO2 SLP189 T02440150 10244 20122 58013
Loading
Personal Weather Stations






























Interactive Weather Map
Tropical Storm Tracking
New forecast layout! Learn more

10-Day Weather Forecast

Advertisements
Track Severe Weather on mobile